sensor_id;sensor_type;location;lat;lon;timestamp;temperature;humidity
8939;DHT22;4504;48.810;9.172;2024-03-06T00:01:58;7.30;99.90
8939;DHT22;4504;48.810;9.172;2024-03-06T00:04:25;7.40;99.90
8939;DHT22;4504;48.810;9.172;2024-03-06T00:06:53;7.40;99.90
8939;DHT22;4504;48.810;9.172;2024-03-06T00:09:21;7.40;99.90
8939;DHT22;4504;48.810;9.172;2024-03-06T00:11:48;7.40;99.90
8939;DHT22;4504;48.810;9.172;2024-03-06T00:14:16;7.40;99.90
8939;DHT22;4504;48.810;9.172;2024-03-06T00:16:43;7.20;99.90
8939;DHT22;4504;48.810;9.172;2024-03-06T00:19:10;7.10;99.90
8939;DHT22;4504;48.810;9.172;2024-03-06T00:21:37;7.10;99.90
8939;DHT22;4504;48.810;9.172;2024-03-06T00:24:06;7.10;99.90
8939;DHT22;4504;48.810;9.172;2024-03-06T00:26:33;7.00;99.90
8939;DHT22;4504;48.810;9.172;2024-03-06T00:29:00;6.90;99.90
8939;DHT22;4504;48.810;9.172;2024-03-06T00:31:27;6.80;99.90
8939;DHT22;4504;48.810;9.172;2024-03-06T00:33:54;6.80;99.90
8939;DHT22;4504;48.810;9.172;2024-03-06T00:36:21;6.80;99.90
8939;DHT22;4504;48.810;9.172;2024-03-06T00:38:49;7.00;99.90
8939;DHT22;4504;48.810;9.172;2024-03-06T00:41:17;7.00;99.90
8939;DHT22;4504;48.810;9.172;2024-03-06T00:43:45;7.10;99.90
8939;DHT22;4504;48.810;9.172;2024-03-06T00:46:12;7.30;99.90
8939;DHT22;4504;48.810;9.172;2024-03-06T00:48:39;7.30;99.90
8939;DHT22;4504;48.810;9.172;2024-03-06T00:51:06;7.20;99.90
8939;DHT22;4504;48.810;9.172;2024-03-06T00:53:33;7.20;99.90
8939;DHT22;4504;48.810;9.172;2024-03-06T00:56:01;7.10;99.90
8939;DHT22;4504;48.810;9.172;2024-03-06T00:58:30;7.20;99.90
8939;DHT22;4504;48.810;9.172;2024-03-06T01:00:56;7.10;99.90
8939;DHT22;4504;48.810;9.172;2024-03-06T01:03:24;7.10;99.90
8939;DHT22;4504;48.810;9.172;2024-03-06T01:05:51;7.20;99.90
8939;DHT22;4504;48.810;9.172;2024-03-06T01:08:19;7.30;99.90
8939;DHT22;4504;48.810;9.172;2024-03-06T01:10:45;7.30;99.90
8939;DHT22;4504;48.810;9.172;2024-03-06T01:13:12;7.20;99.90
8939;DHT22;4504;48.810;9.172;2024-03-06T01:15:41;7.20;99.90
8939;DHT22;4504;48.810;9.172;2024-03-06T01:18:08;7.20;99.90
8939;DHT22;4504;48.810;9.172;2024-03-06T01:20:35;7.20;99.90
8939;DHT22;4504;48.810;9.172;2024-03-06T01:23:03;7.20;99.90
8939;DHT22;4504;48.810;9.172;2024-03-06T01:25:30;7.10;99.90
8939;DHT22;4504;48.810;9.172;2024-03-06T01:27:57;7.10;99.90
8939;DHT22;4504;48.810;9.172;2024-03-06T01:30:24;7.10;99.90
8939;DHT22;4504;48.810;9.172;2024-03-06T01:32:52;7.20;99.90
8939;DHT22;4504;48.810;9.172;2024-03-06T01:35:19;7.20;99.90
8939;DHT22;4504;48.810;9.172;2024-03-06T01:37:46;7.20;99.90
8939;DHT22;4504;48.810;9.172;2024-03-06T01:40:13;7.20;99.90
8939;DHT22;4504;48.810;9.172;2024-03-06T01:42:40;7.20;99.90
8939;DHT22;4504;48.810;9.172;2024-03-06T01:45:08;7.20;99.90
8939;DHT22;4504;48.810;9.172;2024-03-06T01:47:35;7.20;99.90
8939;DHT22;4504;48.810;9.172;2024-03-06T01:50:05;7.20;99.90
8939;DHT22;4504;48.810;9.172;2024-03-06T01:52:35;7.20;99.90
8939;DHT22;4504;48.810;9.172;2024-03-06T01:55:03;7.30;99.90
8939;DHT22;4504;48.810;9.172;2024-03-06T01:57:31;7.30;99.90
8939;DHT22;4504;48.810;9.172;2024-03-06T01:59:58;7.20;99.90
8939;DHT22;4504;48.810;9.172;2024-03-06T02:02:25;7.10;99.90
8939;DHT22;4504;48.810;9.172;2024-03-06T02:04:53;7.00;99.90
8939;DHT22;4504;48.810;9.172;2024-03-06T02:07:22;7.00;99.90
8939;DHT22;4504;48.810;9.172;2024-03-06T02:09:50;6.90;99.90
8939;DHT22;4504;48.810;9.172;2024-03-06T02:12:18;7.00;99.90
8939;DHT22;4504;48.810;9.172;2024-03-06T02:14:45;7.10;99.90
8939;DHT22;4504;48.810;9.172;2024-03-06T02:17:12;7.20;99.90
8939;DHT22;4504;48.810;9.172;2024-03-06T02:19:40;7.30;99.90
8939;DHT22;4504;48.810;9.172;2024-03-06T02:22:08;7.40;99.90
8939;DHT22;4504;48.810;9.172;2024-03-06T02:24:36;7.40;99.90
8939;DHT22;4504;48.810;9.172;2024-03-06T02:27:03;7.40;99.90
8939;DHT22;4504;48.810;9.172;2024-03-06T02:29:31;7.40;99.90
8939;DHT22;4504;48.810;9.172;2024-03-06T02:31:59;7.30;99.90
8939;DHT22;4504;48.810;9.172;2024-03-06T02:34:28;7.30;99.90
8939;DHT22;4504;48.810;9.172;2024-03-06T02:36:55;7.40;99.90
8939;DHT22;4504;48.810;9.172;2024-03-06T02:39:24;7.50;99.90
8939;DHT22;4504;48.810;9.172;2024-03-06T02:41:51;7.50;99.90
8939;DHT22;4504;48.810;9.172;2024-03-06T02:44:18;7.40;99.90
8939;DHT22;4504;48.810;9.172;2024-03-06T02:46:47;7.40;99.90
8939;DHT22;4504;48.810;9.172;2024-03-06T02:49:15;7.40;99.90
8939;DHT22;4504;48.810;9.172;2024-03-06T02:51:42;7.40;99.90
8939;DHT22;4504;48.810;9.172;2024-03-06T02:54:09;7.20;99.90
8939;DHT22;4504;48.810;9.172;2024-03-06T02:56:38;6.90;99.90
8939;DHT22;4504;48.810;9.172;2024-03-06T02:59:05;6.90;99.90
8939;DHT22;4504;48.810;9.172;2024-03-06T03:01:32;6.80;99.90
8939;DHT22;4504;48.810;9.172;2024-03-06T03:03:59;6.70;99.90
8939;DHT22;4504;48.810;9.172;2024-03-06T03:06:26;6.60;99.90
8939;DHT22;4504;48.810;9.172;2024-03-06T03:08:54;6.60;99.90
8939;DHT22;4504;48.810;9.172;2024-03-06T03:11:21;6.60;99.90
8939;DHT22;4504;48.810;9.172;2024-03-06T03:13:50;6.60;99.90
8939;DHT22;4504;48.810;9.172;2024-03-06T03:16:17;6.60;99.90
8939;DHT22;4504;48.810;9.172;2024-03-06T03:18:44;6.60;99.90
8939;DHT22;4504;48.810;9.172;2024-03-06T03:21:11;6.50;99.90
8939;DHT22;4504;48.810;9.172;2024-03-06T03:23:39;6.50;99.90
8939;DHT22;4504;48.810;9.172;2024-03-06T03:26:06;6.50;99.90
8939;DHT22;4504;48.810;9.172;2024-03-06T03:28:33;6.50;99.90
8939;DHT22;4504;48.810;9.172;2024-03-06T03:31:01;6.50;99.90
8939;DHT22;4504;48.810;9.172;2024-03-06T03:33:28;6.50;99.90
8939;DHT22;4504;48.810;9.172;2024-03-06T03:35:55;6.50;99.90
8939;DHT22;4504;48.810;9.172;2024-03-06T03:38:22;6.40;99.90
8939;DHT22;4504;48.810;9.172;2024-03-06T03:40:49;6.50;99.90
8939;DHT22;4504;48.810;9.172;2024-03-06T03:43:16;6.50;99.90
8939;DHT22;4504;48.810;9.172;2024-03-06T03:45:43;6.50;99.90
8939;DHT22;4504;48.810;9.172;2024-03-06T03:48:11;6.50;99.90
8939;DHT22;4504;48.810;9.172;2024-03-06T03:50:38;6.50;99.90
8939;DHT22;4504;48.810;9.172;2024-03-06T03:53:05;6.40;99.90
8939;DHT22;4504;48.810;9.172;2024-03-06T03:55:32;6.40;99.90
8939;DHT22;4504;48.810;9.172;2024-03-06T03:57:59;6.40;99.90
8939;DHT22;4504;48.810;9.172;2024-03-06T04:00:26;6.40;99.90
8939;DHT22;4504;48.810;9.172;2024-03-06T04:02:53;6.50;99.90
8939;DHT22;4504;48.810;9.172;2024-03-06T04:05:22;6.50;99.90
8939;DHT22;4504;48.810;9.172;2024-03-06T04:07:49;6.40;99.90
8939;DHT22;4504;48.810;9.172;2024-03-06T04:10:16;6.40;99.90
8939;DHT22;4504;48.810;9.172;2024-03-06T04:12:44;6.40;99.90
8939;DHT22;4504;48.810;9.172;2024-03-06T04:15:11;6.40;99.90
8939;DHT22;4504;48.810;9.172;2024-03-06T04:17:38;6.40;99.90
8939;DHT22;4504;48.810;9.172;2024-03-06T04:20:07;6.40;99.90
8939;DHT22;4504;48.810;9.172;2024-03-06T04:22:38;6.40;99.90
8939;DHT22;4504;48.810;9.172;2024-03-06T04:25:06;6.40;99.90
8939;DHT22;4504;48.810;9.172;2024-03-06T04:27:33;6.30;99.90
8939;DHT22;4504;48.810;9.172;2024-03-06T04:30:00;6.30;99.90
8939;DHT22;4504;48.810;9.172;2024-03-06T04:32:27;6.50;99.90
8939;DHT22;4504;48.810;9.172;2024-03-06T04:34:54;6.40;99.90
8939;DHT22;4504;48.810;9.172;2024-03-06T04:37:21;6.30;99.90
8939;DHT22;4504;48.810;9.172;2024-03-06T04:39:50;6.30;99.90
8939;DHT22;4504;48.810;9.172;2024-03-06T04:42:17;6.30;99.90
8939;DHT22;4504;48.810;9.172;2024-03-06T04:44:45;6.30;99.90
8939;DHT22;4504;48.810;9.172;2024-03-06T04:47:12;6.30;99.90
8939;DHT22;4504;48.810;9.172;2024-03-06T04:49:39;6.30;99.90
8939;DHT22;4504;48.810;9.172;2024-03-06T04:52:06;6.30;99.90
8939;DHT22;4504;48.810;9.172;2024-03-06T04:54:34;6.30;99.90
8939;DHT22;4504;48.810;9.172;2024-03-06T04:57:03;6.20;99.90
8939;DHT22;4504;48.810;9.172;2024-03-06T04:59:30;6.20;99.90
8939;DHT22;4504;48.810;9.172;2024-03-06T05:01:57;6.20;99.90
8939;DHT22;4504;48.810;9.172;2024-03-06T05:04:24;6.20;99.90
8939;DHT22;4504;48.810;9.172;2024-03-06T05:06:51;6.20;99.90
8939;DHT22;4504;48.810;9.172;2024-03-06T05:09:18;6.30;99.90
8939;DHT22;4504;48.810;9.172;2024-03-06T05:11:45;6.30;99.90
8939;DHT22;4504;48.810;9.172;2024-03-06T05:14:13;6.30;99.90
8939;DHT22;4504;48.810;9.172;2024-03-06T05:16:40;6.40;99.90
8939;DHT22;4504;48.810;9.172;2024-03-06T05:19:07;6.40;99.90
8939;DHT22;4504;48.810;9.172;2024-03-06T05:21:34;6.30;99.90
8939;DHT22;4504;48.810;9.172;2024-03-06T05:24:02;6.30;99.90
8939;DHT22;4504;48.810;9.172;2024-03-06T05:26:29;6.30;99.90
8939;DHT22;4504;48.810;9.172;2024-03-06T05:28:56;6.20;99.90
8939;DHT22;4504;48.810;9.172;2024-03-06T05:31:24;6.20;99.90
8939;DHT22;4504;48.810;9.172;2024-03-06T05:33:51;6.20;99.90
8939;DHT22;4504;48.810;9.172;2024-03-06T05:36:18;6.20;99.90
8939;DHT22;4504;48.810;9.172;2024-03-06T05:38:45;6.20;99.90
8939;DHT22;4504;48.810;9.172;2024-03-06T05:41:13;6.20;99.90
8939;DHT22;4504;48.810;9.172;2024-03-06T05:43:41;6.20;99.90
8939;DHT22;4504;48.810;9.172;2024-03-06T05:46:07;6.20;99.90
8939;DHT22;4504;48.810;9.172;2024-03-06T05:48:36;6.10;99.90
8939;DHT22;4504;48.810;9.172;2024-03-06T05:51:03;6.20;99.90
8939;DHT22;4504;48.810;9.172;2024-03-06T05:53:30;6.20;99.90
8939;DHT22;4504;48.810;9.172;2024-03-06T05:55:57;6.20;99.90
8939;DHT22;4504;48.810;9.172;2024-03-06T05:58:24;6.10;99.90
8939;DHT22;4504;48.810;9.172;2024-03-06T06:00:51;6.10;99.90
8939;DHT22;4504;48.810;9.172;2024-03-06T06:03:18;6.20;99.90
8939;DHT22;4504;48.810;9.172;2024-03-06T06:05:46;6.20;99.90
8939;DHT22;4504;48.810;9.172;2024-03-06T06:08:13;6.20;99.90
8939;DHT22;4504;48.810;9.172;2024-03-06T06:10:40;6.20;99.90
8939;DHT22;4504;48.810;9.172;2024-03-06T06:13:07;6.20;99.90
8939;DHT22;4504;48.810;9.172;2024-03-06T06:15:34;6.30;99.90
8939;DHT22;4504;48.810;9.172;2024-03-06T06:18:01;6.20;99.90
8939;DHT22;4504;48.810;9.172;2024-03-06T06:20:28;6.20;99.90
8939;DHT22;4504;48.810;9.172;2024-03-06T06:22:57;6.20;99.90
8939;DHT22;4504;48.810;9.172;2024-03-06T06:25:24;6.20;99.90
8939;DHT22;4504;48.810;9.172;2024-03-06T06:27:51;6.30;99.90
8939;DHT22;4504;48.810;9.172;2024-03-06T06:30:18;6.30;99.90
8939;DHT22;4504;48.810;9.172;2024-03-06T06:32:46;6.30;99.90
8939;DHT22;4504;48.810;9.172;2024-03-06T06:35:12;6.30;99.90
8939;DHT22;4504;48.810;9.172;2024-03-06T06:37:40;6.30;99.90
8939;DHT22;4504;48.810;9.172;2024-03-06T06:40:09;6.30;99.90
8939;DHT22;4504;48.810;9.172;2024-03-06T06:42:37;6.30;99.90
8939;DHT22;4504;48.810;9.172;2024-03-06T06:45:05;6.30;99.90
8939;DHT22;4504;48.810;9.172;2024-03-06T06:47:35;6.20;99.90
8939;DHT22;4504;48.810;9.172;2024-03-06T06:50:02;6.20;99.90
8939;DHT22;4504;48.810;9.172;2024-03-06T06:52:31;6.30;99.90
8939;DHT22;4504;48.810;9.172;2024-03-06T06:54:59;6.20;99.90
8939;DHT22;4504;48.810;9.172;2024-03-06T06:57:27;6.20;99.90
8939;DHT22;4504;48.810;9.172;2024-03-06T06:59:54;6.20;99.90
8939;DHT22;4504;48.810;9.172;2024-03-06T07:02:21;6.30;99.90
8939;DHT22;4504;48.810;9.172;2024-03-06T07:04:48;6.20;99.90
8939;DHT22;4504;48.810;9.172;2024-03-06T07:07:15;6.20;99.90
8939;DHT22;4504;48.810;9.172;2024-03-06T07:09:43;6.20;99.90
8939;DHT22;4504;48.810;9.172;2024-03-06T07:12:09;6.20;99.90
8939;DHT22;4504;48.810;9.172;2024-03-06T07:14:38;6.30;99.90
8939;DHT22;4504;48.810;9.172;2024-03-06T07:17:05;6.20;99.90
8939;DHT22;4504;48.810;9.172;2024-03-06T07:19:32;6.20;99.90
8939;DHT22;4504;48.810;9.172;2024-03-06T07:21:59;6.20;99.90
8939;DHT22;4504;48.810;9.172;2024-03-06T07:24:26;6.30;99.90
8939;DHT22;4504;48.810;9.172;2024-03-06T07:26:52;6.30;99.90
8939;DHT22;4504;48.810;9.172;2024-03-06T07:29:19;6.30;99.90
8939;DHT22;4504;48.810;9.172;2024-03-06T07:31:48;6.40;99.90
8939;DHT22;4504;48.810;9.172;2024-03-06T07:34:15;6.30;99.90
8939;DHT22;4504;48.810;9.172;2024-03-06T07:36:43;6.30;99.90
8939;DHT22;4504;48.810;9.172;2024-03-06T07:39:11;6.30;99.90
8939;DHT22;4504;48.810;9.172;2024-03-06T07:41:40;6.30;99.90
8939;DHT22;4504;48.810;9.172;2024-03-06T07:44:07;6.30;99.90
8939;DHT22;4504;48.810;9.172;2024-03-06T07:46:34;6.20;99.90
8939;DHT22;4504;48.810;9.172;2024-03-06T07:49:03;6.30;99.90
8939;DHT22;4504;48.810;9.172;2024-03-06T07:51:30;6.30;99.90
8939;DHT22;4504;48.810;9.172;2024-03-06T07:53:57;6.40;99.90
8939;DHT22;4504;48.810;9.172;2024-03-06T07:56:25;6.60;99.90
8939;DHT22;4504;48.810;9.172;2024-03-06T07:58:52;6.60;99.90
8939;DHT22;4504;48.810;9.172;2024-03-06T08:01:20;6.50;99.90
8939;DHT22;4504;48.810;9.172;2024-03-06T08:03:47;6.30;99.90
8939;DHT22;4504;48.810;9.172;2024-03-06T08:06:16;6.30;99.90
8939;DHT22;4504;48.810;9.172;2024-03-06T08:08:43;6.20;99.90
8939;DHT22;4504;48.810;9.172;2024-03-06T08:11:11;6.20;99.90
8939;DHT22;4504;48.810;9.172;2024-03-06T08:13:38;6.20;99.90
8939;DHT22;4504;48.810;9.172;2024-03-06T08:16:06;6.30;99.90
8939;DHT22;4504;48.810;9.172;2024-03-06T08:18:33;6.30;99.90
8939;DHT22;4504;48.810;9.172;2024-03-06T08:21:01;6.30;99.90
8939;DHT22;4504;48.810;9.172;2024-03-06T08:23:31;6.30;99.90
8939;DHT22;4504;48.810;9.172;2024-03-06T08:25:58;6.30;99.90
8939;DHT22;4504;48.810;9.172;2024-03-06T08:28:26;6.30;99.90
8939;DHT22;4504;48.810;9.172;2024-03-06T08:30:53;6.30;99.90
8939;DHT22;4504;48.810;9.172;2024-03-06T08:33:20;6.30;99.90
8939;DHT22;4504;48.810;9.172;2024-03-06T08:35:48;6.40;99.90
8939;DHT22;4504;48.810;9.172;2024-03-06T08:38:15;6.40;99.90
8939;DHT22;4504;48.810;9.172;2024-03-06T08:40:44;6.40;99.90
8939;DHT22;4504;48.810;9.172;2024-03-06T08:43:12;6.40;99.90
8939;DHT22;4504;48.810;9.172;2024-03-06T08:45:41;6.40;99.90
8939;DHT22;4504;48.810;9.172;2024-03-06T08:48:08;6.50;99.90
8939;DHT22;4504;48.810;9.172;2024-03-06T08:50:36;6.50;99.90
8939;DHT22;4504;48.810;9.172;2024-03-06T08:53:03;6.40;99.90
8939;DHT22;4504;48.810;9.172;2024-03-06T08:55:30;6.40;99.90
8939;DHT22;4504;48.810;9.172;2024-03-06T08:57:58;6.40;99.90
8939;DHT22;4504;48.810;9.172;2024-03-06T09:00:26;6.50;99.90
8939;DHT22;4504;48.810;9.172;2024-03-06T09:02:53;6.50;99.90
8939;DHT22;4504;48.810;9.172;2024-03-06T09:05:21;6.50;99.90
8939;DHT22;4504;48.810;9.172;2024-03-06T09:07:48;6.40;99.90
8939;DHT22;4504;48.810;9.172;2024-03-06T09:10:15;6.40;99.90
8939;DHT22;4504;48.810;9.172;2024-03-06T09:12:43;6.40;99.90
8939;DHT22;4504;48.810;9.172;2024-03-06T09:15:11;6.40;99.90
8939;DHT22;4504;48.810;9.172;2024-03-06T09:17:39;6.40;99.90
8939;DHT22;4504;48.810;9.172;2024-03-06T09:20:06;6.50;99.90
8939;DHT22;4504;48.810;9.172;2024-03-06T09:22:36;6.50;99.90
8939;DHT22;4504;48.810;9.172;2024-03-06T09:25:05;6.60;99.90
8939;DHT22;4504;48.810;9.172;2024-03-06T09:27:32;6.60;99.90
8939;DHT22;4504;48.810;9.172;2024-03-06T09:29:59;6.50;99.90
8939;DHT22;4504;48.810;9.172;2024-03-06T09:32:27;6.50;99.90
8939;DHT22;4504;48.810;9.172;2024-03-06T09:34:54;6.50;99.90
8939;DHT22;4504;48.810;9.172;2024-03-06T09:37:21;6.60;99.90
8939;DHT22;4504;48.810;9.172;2024-03-06T09:39:48;6.60;99.90
8939;DHT22;4504;48.810;9.172;2024-03-06T09:42:15;6.70;99.90
8939;DHT22;4504;48.810;9.172;2024-03-06T09:44:43;6.70;99.90
8939;DHT22;4504;48.810;9.172;2024-03-06T09:47:13;6.60;99.90
8939;DHT22;4504;48.810;9.172;2024-03-06T09:49:42;6.60;99.90
8939;DHT22;4504;48.810;9.172;2024-03-06T09:52:10;6.70;99.90
8939;DHT22;4504;48.810;9.172;2024-03-06T09:54:37;6.60;99.90
8939;DHT22;4504;48.810;9.172;2024-03-06T09:57:05;6.60;99.90
8939;DHT22;4504;48.810;9.172;2024-03-06T09:59:33;6.60;99.90
8939;DHT22;4504;48.810;9.172;2024-03-06T10:02:01;6.60;99.90
8939;DHT22;4504;48.810;9.172;2024-03-06T10:04:33;6.60;99.90
8939;DHT22;4504;48.810;9.172;2024-03-06T10:07:04;6.60;99.90
8939;DHT22;4504;48.810;9.172;2024-03-06T10:09:33;6.60;99.90
8939;DHT22;4504;48.810;9.172;2024-03-06T10:12:01;6.60;99.90
8939;DHT22;4504;48.810;9.172;2024-03-06T10:14:29;6.60;99.90
8939;DHT22;4504;48.810;9.172;2024-03-06T10:16:59;6.60;99.90
8939;DHT22;4504;48.810;9.172;2024-03-06T10:19:27;6.60;99.90
8939;DHT22;4504;48.810;9.172;2024-03-06T10:21:55;6.60;99.90
8939;DHT22;4504;48.810;9.172;2024-03-06T10:24:25;6.70;99.90
8939;DHT22;4504;48.810;9.172;2024-03-06T10:26:55;6.70;99.90
8939;DHT22;4504;48.810;9.172;2024-03-06T10:29:25;6.80;99.90
8939;DHT22;4504;48.810;9.172;2024-03-06T10:31:53;6.80;99.90
8939;DHT22;4504;48.810;9.172;2024-03-06T10:34:21;6.80;99.90
8939;DHT22;4504;48.810;9.172;2024-03-06T10:36:53;6.70;99.90
8939;DHT22;4504;48.810;9.172;2024-03-06T10:39:20;6.80;99.90
8939;DHT22;4504;48.810;9.172;2024-03-06T10:41:52;6.70;99.90
8939;DHT22;4504;48.810;9.172;2024-03-06T10:44:22;6.80;99.90
8939;DHT22;4504;48.810;9.172;2024-03-06T10:46:57;6.80;99.90
8939;DHT22;4504;48.810;9.172;2024-03-06T10:49:26;6.80;99.90
8939;DHT22;4504;48.810;9.172;2024-03-06T10:51:57;6.90;99.90
8939;DHT22;4504;48.810;9.172;2024-03-06T10:54:26;7.00;99.90
8939;DHT22;4504;48.810;9.172;2024-03-06T10:56:56;7.00;99.90
8939;DHT22;4504;48.810;9.172;2024-03-06T10:59:25;6.90;99.90
8939;DHT22;4504;48.810;9.172;2024-03-06T11:01:54;6.90;99.90
8939;DHT22;4504;48.810;9.172;2024-03-06T11:04:24;6.90;99.90
8939;DHT22;4504;48.810;9.172;2024-03-06T11:06:52;6.90;99.90
8939;DHT22;4504;48.810;9.172;2024-03-06T11:09:19;6.80;99.90
8939;DHT22;4504;48.810;9.172;2024-03-06T11:11:50;6.80;99.90
8939;DHT22;4504;48.810;9.172;2024-03-06T11:14:21;6.90;99.90
8939;DHT22;4504;48.810;9.172;2024-03-06T11:17:04;6.90;99.90
8939;DHT22;4504;48.810;9.172;2024-03-06T11:19:33;6.90;99.90
8939;DHT22;4504;48.810;9.172;2024-03-06T11:23:04;6.90;99.90
8939;DHT22;4504;48.810;9.172;2024-03-06T11:26:05;6.80;99.90
8939;DHT22;4504;48.810;9.172;2024-03-06T11:28:33;6.80;99.90
8939;DHT22;4504;48.810;9.172;2024-03-06T11:31:03;6.90;99.90
8939;DHT22;4504;48.810;9.172;2024-03-06T11:33:37;6.80;99.90
8939;DHT22;4504;48.810;9.172;2024-03-06T11:36:15;6.80;99.90
8939;DHT22;4504;48.810;9.172;2024-03-06T11:38:46;6.80;99.90
8939;DHT22;4504;48.810;9.172;2024-03-06T11:41:14;6.80;99.90
8939;DHT22;4504;48.810;9.172;2024-03-06T11:43:44;6.90;99.90
8939;DHT22;4504;48.810;9.172;2024-03-06T11:46:14;6.90;99.90
8939;DHT22;4504;48.810;9.172;2024-03-06T11:48:43;6.90;99.90
8939;DHT22;4504;48.810;9.172;2024-03-06T11:51:11;6.90;99.90
8939;DHT22;4504;48.810;9.172;2024-03-06T11:53:38;6.90;99.90
8939;DHT22;4504;48.810;9.172;2024-03-06T11:56:10;6.90;99.90
8939;DHT22;4504;48.810;9.172;2024-03-06T11:58:37;6.90;99.90
8939;DHT22;4504;48.810;9.172;2024-03-06T12:01:04;6.90;99.90
8939;DHT22;4504;48.810;9.172;2024-03-06T12:03:33;6.90;99.90
8939;DHT22;4504;48.810;9.172;2024-03-06T12:06:00;6.90;99.90
8939;DHT22;4504;48.810;9.172;2024-03-06T12:08:27;6.90;99.90
8939;DHT22;4504;48.810;9.172;2024-03-06T12:10:54;6.90;99.90
8939;DHT22;4504;48.810;9.172;2024-03-06T12:13:23;7.00;99.90
8939;DHT22;4504;48.810;9.172;2024-03-06T12:15:51;6.90;99.90
8939;DHT22;4504;48.810;9.172;2024-03-06T12:18:19;6.90;99.90
8939;DHT22;4504;48.810;9.172;2024-03-06T12:20:49;6.90;99.90
8939;DHT22;4504;48.810;9.172;2024-03-06T12:23:21;6.90;99.90
8939;DHT22;4504;48.810;9.172;2024-03-06T12:25:49;6.90;99.90
8939;DHT22;4504;48.810;9.172;2024-03-06T12:28:16;6.90;99.90
8939;DHT22;4504;48.810;9.172;2024-03-06T12:30:44;6.90;99.90
8939;DHT22;4504;48.810;9.172;2024-03-06T12:33:11;7.00;99.90
8939;DHT22;4504;48.810;9.172;2024-03-06T12:35:43;6.90;99.90
8939;DHT22;4504;48.810;9.172;2024-03-06T12:38:14;6.90;99.90
8939;DHT22;4504;48.810;9.172;2024-03-06T12:40:42;6.90;99.90
8939;DHT22;4504;48.810;9.172;2024-03-06T12:43:09;7.00;99.90
8939;DHT22;4504;48.810;9.172;2024-03-06T12:45:36;7.00;99.90
8939;DHT22;4504;48.810;9.172;2024-03-06T12:48:05;6.90;99.90
8939;DHT22;4504;48.810;9.172;2024-03-06T12:50:32;6.90;99.90
8939;DHT22;4504;48.810;9.172;2024-03-06T12:52:59;7.00;99.90
8939;DHT22;4504;48.810;9.172;2024-03-06T12:55:27;7.00;99.90
